Time;durP1;ratioP1;P1;durP2;ratioP2;P2;SDS_P1;SDS_P2;PMS_P1;PMS_P2;Temp;Humidity;BMP_temperature;BMP_pressure;BME280_temperature;BME280_humidity;BME280_pressure;Samples;Min_cycle;Max_cycle;Signal;HPM_P1;HPM_P2
2022/09/11 00:01:17;;;;;;;;;12.50;12.50;;;;;15.86;94.56;101759.03;5031889;28;49932;-69
2022/09/11 00:03:44;;;;;;;;;16.50;12.75;;;;;15.95;94.25;101776.81;5032310;28;49649;-69
2022/09/11 00:06:15;;;;;;;;;14.25;13.75;;;;;15.90;94.51;101771.44;5031905;28;49923;-69
2022/09/11 00:08:42;;;;;;;;;10.50;10.00;;;;;15.90;94.80;101763.47;5032211;28;49939;-68
2022/09/11 00:11:17;;;;;;;;;13.50;13.50;;;;;15.78;94.66;101738.59;5032181;28;49677;-68
2022/09/11 00:13:44;;;;;;;;;13.25;11.50;;;;;15.94;95.32;101770.63;5032657;28;49823;-69
2022/09/11 00:16:40;;;;;;;;;12.00;11.50;;;;;15.96;95.55;101776.81;5031993;28;49895;-70
2022/09/11 00:19:17;;;;;;;;;13.00;11.00;;;;;15.86;95.31;101756.38;5035231;28;49747;-68
2022/09/11 00:21:44;;;;;;;;;14.25;13.25;;;;;15.94;95.49;101772.38;5031632;28;49834;-69
2022/09/11 00:24:10;;;;;;;;;12.50;12.50;;;;;15.93;94.86;101766.19;5032270;28;49776;-68
2022/09/11 00:26:36;;;;;;;;;7.00;7.00;;;;;15.89;94.16;101755.53;5031631;28;51384;-68
2022/09/11 00:29:02;;;;;;;;;9.50;9.25;;;;;15.80;94.11;101750.09;5031867;28;49891;-69
2022/09/11 00:31:29;;;;;;;;;8.50;8.50;;;;;15.85;93.47;101759.91;5030688;28;49659;-69
2022/09/11 00:33:55;;;;;;;;;13.50;11.00;;;;;15.83;93.89;101752.81;5031951;28;50035;-70
2022/09/11 00:36:33;;;;;;;;;9.75;9.75;;;;;15.81;93.89;101759.81;5031489;28;50396;-69
2022/09/11 00:38:59;;;;;;;;;13.75;11.50;;;;;15.79;94.52;101756.25;5031481;28;49695;-69
2022/09/11 00:41:28;;;;;;;;;11.50;11.50;;;;;15.79;94.38;101762.44;5031425;28;49577;-69
2022/09/11 00:43:56;;;;;;;;;15.25;14.50;;;;;15.77;93.54;101761.53;5031850;28;49812;-70
2022/09/11 00:46:25;;;;;;;;;10.25;10.25;;;;;15.76;93.97;101759.75;5031628;28;49844;-71
2022/09/11 00:48:51;;;;;;;;;8.25;8.25;;;;;15.72;93.88;101752.63;5031521;28;49758;-70
2022/09/11 00:51:24;;;;;;;;;17.75;16.00;;;;;15.63;93.34;101745.44;5031327;28;49613;-70
2022/09/11 00:53:53;;;;;;;;;13.50;12.75;;;;;15.70;93.90;101751.72;5031734;28;49809;-70
2022/09/11 00:56:20;;;;;;;;;15.00;13.50;;;;;15.68;93.68;101750.78;5031106;28;49698;-70
2022/09/11 00:58:49;;;;;;;;;12.75;12.00;;;;;15.67;93.33;101752.56;5038332;28;49934;-69
2022/09/11 01:01:15;;;;;;;;;9.75;9.75;;;;;15.64;93.02;101749.88;5040990;28;49991;-69
2022/09/11 01:03:41;;;;;;;;;11.75;11.75;;;;;15.58;92.75;101746.19;5031629;28;49863;-69
2022/09/11 01:06:09;;;;;;;;;13.00;13.00;;;;;15.61;92.84;101743.63;5031106;28;49963;-69
2022/09/11 01:08:35;;;;;;;;;11.75;9.25;;;;;15.58;92.79;101743.53;5031285;28;49681;-69
2022/09/11 01:11:30;;;;;;;;;12.25;11.00;;;;;15.55;92.84;101739.09;5033317;28;49657;-70
2022/09/11 01:13:58;;;;;;;;;12.25;10.00;;;;;15.53;92.68;101754.03;5049265;28;49533;-70
2022/09/11 01:16:23;;;;;;;;;8.25;8.25;;;;;15.50;92.59;101743.41;5041194;28;50172;-70
2022/09/11 01:19:00;;;;;;;;;13.75;13.50;;;;;15.43;92.39;101729.19;5030675;28;49856;-69
2022/09/11 01:21:59;;;;;;;;;13.50;11.75;;;;;15.47;92.72;101743.38;5030949;28;49864;-70
2022/09/11 01:24:52;;;;;;;;;14.00;13.00;;;;;15.46;93.32;101731.00;5031370;28;49941;-69
2022/09/11 01:27:44;;;;;;;;;12.25;10.50;;;;;15.45;92.77;101740.72;5029958;28;49592;-70
2022/09/11 01:30:19;;;;;;;;;13.00;12.00;;;;;15.39;93.05;101730.00;5028031;28;49809;-70
2022/09/11 01:32:55;;;;;;;;;14.75;14.00;;;;;15.42;92.72;101737.09;5030903;28;49768;-69
2022/09/11 01:35:30;;;;;;;;;15.25;14.25;;;;;15.32;92.91;101720.19;5030752;28;50208;-70
2022/09/11 01:38:04;;;;;;;;;13.75;13.00;;;;;15.33;92.80;101721.06;5030646;28;49832;-69
2022/09/11 01:40:38;;;;;;;;;15.25;13.25;;;;;15.35;92.74;101725.56;5028937;28;50287;-70
2022/09/11 01:43:12;;;;;;;;;12.00;10.50;;;;;15.36;93.08;101734.38;5034092;28;49985;-70
2022/09/11 01:45:41;;;;;;;;;13.50;12.50;;;;;15.25;92.50;101723.63;5048222;28;49318;-70
2022/09/11 01:48:10;;;;;;;;;15.00;13.75;;;;;15.26;92.78;101722.75;5048685;28;49461;-70
2022/09/11 01:50:40;;;;;;;;;14.50;12.75;;;;;15.32;93.52;101733.41;5046917;28;49308;-69
2022/09/11 01:53:08;;;;;;;;;16.00;15.00;;;;;15.25;94.43;101715.69;5048718;28;49437;-69
2022/09/11 01:55:38;;;;;;;;;16.00;16.00;;;;;15.33;93.43;101739.59;5048449;28;49542;-69
2022/09/11 01:58:17;;;;;;;;;15.50;15.50;;;;;15.23;93.41;101711.22;5048536;28;49491;-72
2022/09/11 02:00:48;;;;;;;;;14.00;14.00;;;;;15.33;93.23;101726.38;5042893;28;49210;-70
2022/09/11 02:03:23;;;;;;;;;11.75;11.75;;;;;15.29;93.56;101722.78;5032541;28;49621;-69
2022/09/11 02:05:57;;;;;;;;;13.00;13.00;;;;;15.28;93.97;101728.94;5038624;28;49634;-69
2022/09/11 02:08:29;;;;;;;;;14.00;13.50;;;;;15.31;93.04;101731.63;5031517;28;49850;-71
2022/09/11 02:11:04;;;;;;;;;18.00;14.50;;;;;15.24;92.71;101712.97;5030014;28;49827;-70
2022/09/11 02:13:45;;;;;;;;;12.00;11.75;;;;;15.27;92.62;101729.81;5030317;28;50014;-69
2022/09/11 02:16:21;;;;;;;;;13.50;13.50;;;;;15.16;92.58;101715.53;5030523;28;49757;-69
2022/09/11 02:19:06;;;;;;;;;13.00;12.50;;;;;15.21;92.48;101724.41;5030078;28;49683;-69
2022/09/11 02:21:32;;;;;;;;;15.00;13.75;;;;;15.07;91.97;101710.97;5030026;28;49861;-69
2022/09/11 02:24:02;;;;;;;;;13.50;12.00;;;;;15.17;91.79;101731.41;5031766;28;49785;-69
2022/09/11 02:26:32;;;;;;;;;15.00;12.25;;;;;15.13;91.45;101728.66;5034666;28;49679;-71
2022/09/11 02:28:57;;;;;;;;;11.00;9.00;;;;;15.13;91.89;101732.22;5036182;28;49860;-69
2022/09/11 02:31:23;;;;;;;;;14.50;12.25;;;;;15.10;91.69;101729.53;5043820;28;49668;-70
2022/09/11 02:33:50;;;;;;;;;10.75;9.25;;;;;15.09;91.65;101729.50;5034619;28;49668;-70
2022/09/11 02:36:21;;;;;;;;;11.25;10.00;;;;;15.06;91.67;101726.81;5035439;28;49668;-70
2022/09/11 02:38:56;;;;;;;;;12.00;12.00;;;;;15.05;91.60;101730.28;5031939;28;50595;-70
2022/09/11 02:41:37;;;;;;;;;13.25;12.25;;;;;14.92;91.62;101723.91;5065794;28;49742;-69
2022/09/11 02:44:24;;;;;;;;;14.75;14.25;;;;;14.91;91.67;101716.84;5033461;28;49886;-69
2022/09/11 02:47:25;;;;;;;;;13.00;12.50;;;;;15.00;91.36;101729.34;5048932;28;49690;-70
2022/09/11 02:50:25;;;;;;;;;13.75;12.25;;;;;14.78;91.09;101698.97;5031525;28;50704;-69
2022/09/11 02:53:17;;;;;;;;;11.50;11.00;;;;;14.80;91.25;101706.06;5033322;28;49980;-70
2022/09/11 02:56:07;;;;;;;;;12.00;12.00;;;;;14.93;91.10;101738.91;5036979;28;49822;-70
2022/09/11 02:58:49;;;;;;;;;12.00;9.00;;;;;14.90;91.26;101736.19;5045687;28;49478;-71
2022/09/11 03:01:15;;;;;;;;;10.75;10.00;;;;;14.70;91.27;101708.50;5049116;28;49586;-70
2022/09/11 03:03:43;;;;;;;;;13.25;13.25;;;;;14.86;91.36;101737.91;5051070;28;49842;-69
2022/09/11 03:06:15;;;;;;;;;13.00;13.00;;;;;14.73;91.87;101714.72;5050951;28;49335;-70
2022/09/11 03:08:41;;;;;;;;;13.00;11.25;;;;;14.82;92.40;101729.88;5050584;28;49650;-70
2022/09/11 03:11:08;;;;;;;;;11.75;11.75;;;;;14.86;92.25;101729.06;5049047;28;50026;-69
2022/09/11 03:13:34;;;;;;;;;11.75;11.25;;;;;14.79;92.15;101713.97;5048301;28;49498;-69
2022/09/11 03:16:00;;;;;;;;;16.25;14.00;;;;;14.77;91.87;101713.06;5048629;28;49718;-69
2022/09/11 03:18:25;;;;;;;;;14.25;13.25;;;;;14.82;91.55;101727.22;5048654;28;49885;-69
2022/09/11 03:20:50;;;;;;;;;16.50;14.00;;;;;14.85;92.38;101729.91;5047499;28;61274;-69
2022/09/11 03:23:16;;;;;;;;;13.75;13.25;;;;;14.82;92.22;101727.22;5048606;28;49561;-70
2022/09/11 03:25:41;;;;;;;;;11.75;11.75;;;;;14.84;92.22;101723.75;5048319;28;49648;-69
2022/09/11 03:28:06;;;;;;;;;13.00;12.00;;;;;14.72;92.10;101704.13;5048856;28;49743;-70
2022/09/11 03:30:32;;;;;;;;;13.50;13.50;;;;;14.74;91.52;101710.34;5049206;28;50048;-69
2022/09/11 03:32:59;;;;;;;;;11.00;11.00;;;;;14.81;90.95;101730.75;5048142;28;49507;-69
2022/09/11 03:35:25;;;;;;;;;12.00;12.00;;;;;14.75;91.39;101718.28;5048321;28;49646;-70
2022/09/11 03:37:50;;;;;;;;;13.00;12.00;;;;;14.78;91.71;101728.06;5049125;28;49809;-70
2022/09/11 03:40:16;;;;;;;;;12.25;12.25;;;;;14.81;92.72;101730.75;5047300;28;50003;-70
2022/09/11 03:42:41;;;;;;;;;12.75;11.75;;;;;14.79;92.74;101728.06;5047392;28;49487;-69
2022/09/11 03:45:07;;;;;;;;;11.00;11.00;;;;;14.86;93.63;101734.34;5047798;28;49413;-70
2022/09/11 03:47:32;;;;;;;;;15.00;12.25;;;;;14.87;93.20;101722.94;5048599;28;49476;-70
2022/09/11 03:49:58;;;;;;;;;10.00;10.00;;;;;14.78;93.12;101718.38;5062715;28;51360;-70
2022/09/11 03:52:23;;;;;;;;;14.00;13.00;;;;;14.86;92.77;101729.06;5047476;28;51215;-69
2022/09/11 03:54:48;;;;;;;;;11.25;11.25;;;;;14.87;93.14;101728.22;5047713;28;49454;-70
2022/09/11 03:57:14;;;;;;;;;10.00;10.00;;;;;14.72;93.23;101698.84;5048153;28;49648;-71
2022/09/11 03:59:39;;;;;;;;;10.50;10.50;;;;;14.87;92.91;101733.50;5047793;28;49865;-70
2022/09/11 04:02:04;;;;;;;;;15.50;9.25;;;;;14.87;93.09;101730.88;5047421;28;49371;-69
2022/09/11 04:04:30;;;;;;;;;9.25;9.25;;;;;14.87;92.97;101739.69;5044525;28;49716;-70
2022/09/11 04:06:55;;;;;;;;;11.00;11.00;;;;;14.82;93.58;101717.56;5047887;28;49816;-70
2022/09/11 04:09:21;;;;;;;;;12.75;11.75;;;;;14.80;93.32;101706.06;5048098;28;68729;-70
2022/09/11 04:11:46;;;;;;;;;15.25;13.25;;;;;14.92;93.62;101726.53;5048417;28;49849;-69
2022/09/11 04:14:11;;;;;;;;;13.50;11.00;;;;;14.93;93.89;101725.69;5047557;28;49655;-69
2022/09/11 04:16:37;;;;;;;;;12.25;10.50;;;;;14.92;93.61;101721.25;5048813;28;49276;-71
2022/09/11 04:19:02;;;;;;;;;7.75;7.25;;;;;14.95;94.27;101737.16;5047489;28;49877;-70
2022/09/11 04:21:29;;;;;;;;;12.75;12.75;;;;;14.97;93.82;101732.81;5047708;28;49723;-70
2022/09/11 04:23:58;;;;;;;;;14.00;10.75;;;;;14.84;93.70;101709.63;5048078;28;49499;-70
2022/09/11 04:26:26;;;;;;;;;10.00;7.25;;;;;14.95;93.38;101730.97;5042105;28;49862;-70
2022/09/11 04:28:51;;;;;;;;;8.50;8.50;;;;;14.88;93.08;101722.06;5047651;28;50062;-70
2022/09/11 04:31:18;;;;;;;;;9.50;9.50;;;;;14.92;93.03;101736.22;5045627;28;50883;-70
2022/09/11 04:33:44;;;;;;;;;11.75;11.75;;;;;14.87;93.09;101729.13;5046399;28;49919;-69
2022/09/11 04:36:12;;;;;;;;;12.50;11.00;;;;;14.88;93.00;101733.53;5047109;28;49255;-70
2022/09/11 04:38:40;;;;;;;;;9.00;9.00;;;;;14.81;92.15;101721.06;5047746;28;49513;-72
2022/09/11 04:41:06;;;;;;;;;12.25;12.25;;;;;14.83;92.54;101734.31;5047063;28;49252;-70
2022/09/11 04:43:33;;;;;;;;;11.00;11.00;;;;;14.82;92.30;101740.44;5047819;28;49473;-70
2022/09/11 04:46:06;;;;;;;;;9.50;9.50;;;;;14.80;92.67;101745.72;5047843;28;49602;-69
2022/09/11 04:48:32;;;;;;;;;10.25;8.00;;;;;14.67;92.83;101721.63;5056536;28;49782;-70
2022/09/11 04:51:03;;;;;;;;;9.75;9.25;;;;;14.80;92.92;101742.19;5047153;28;49459;-70
2022/09/11 04:53:28;;;;;;;;;10.00;8.50;;;;;14.80;92.99;101742.19;5049778;28;49226;-71
2022/09/11 04:56:20;;;;;;;;;9.50;6.00;;;;;14.81;93.55;101746.59;5046744;28;49479;-72
2022/09/11 04:58:53;;;;;;;;;11.00;11.00;;;;;14.81;93.60;101736.91;5046864;28;49818;-71
2022/09/11 05:01:19;;;;;;;;;10.75;9.75;;;;;14.73;93.34;101737.63;5045754;28;49664;-70
2022/09/11 05:03:44;;;;;;;;;7.75;7.75;;;;;14.80;93.55;101753.66;5047386;28;49693;-71
2022/09/11 05:06:14;;;;;;;;;10.75;10.00;;;;;14.84;94.13;101766.03;5043122;28;49646;-70
2022/09/11 05:08:39;;;;;;;;;11.00;11.00;;;;;14.72;93.78;101746.44;5047763;28;49852;-71
2022/09/11 05:11:05;;;;;;;;;13.50;12.00;;;;;14.81;94.02;101763.34;5045407;28;63551;-71
2022/09/11 05:13:32;;;;;;;;;12.75;11.75;;;;;14.89;94.02;101767.03;5046491;28;49684;-72
2022/09/11 05:16:06;;;;;;;;;11.25;11.25;;;;;14.91;93.92;101766.19;5047029;28;49394;-71
2022/09/11 05:18:32;;;;;;;;;12.00;9.25;;;;;14.94;94.10;101771.50;5047275;28;49886;-72
2022/09/11 05:20:59;;;;;;;;;11.25;11.25;;;;;14.65;93.63;101713.69;5041594;28;68243;-71
2022/09/11 05:23:24;;;;;;;;;12.00;10.25;;;;;14.95;94.58;101765.34;5046554;28;49793;-69
2022/09/11 05:25:50;;;;;;;;;12.75;10.25;;;;;14.95;94.36;101765.34;5046938;28;49247;-70
2022/09/11 05:28:16;;;;;;;;;13.75;12.50;;;;;14.87;94.20;101750.25;5046213;28;50231;-71
2022/09/11 05:30:41;;;;;;;;;11.75;11.75;;;;;14.86;93.91;101756.41;5047173;28;49479;-69
2022/09/11 05:33:07;;;;;;;;;17.00;15.75;;;;;15.00;94.35;101769.88;5046460;28;68192;-70
2022/09/11 05:35:33;;;;;;;;;8.25;8.25;;;;;15.02;94.22;101776.09;5045662;28;49393;-72
2022/09/11 05:37:58;;;;;;;;;12.50;11.00;;;;;15.03;94.27;101772.56;5048958;28;65714;-72
2022/09/11 05:40:23;;;;;;;;;10.75;10.75;;;;;15.04;93.88;101776.09;5045560;28;54211;-71
2022/09/11 05:42:48;;;;;;;;;12.00;11.00;;;;;15.07;93.84;101776.19;5041997;28;49704;-71
2022/09/11 05:45:14;;;;;;;;;8.25;8.25;;;;;15.00;93.67;101763.72;5046022;28;54755;-70
2022/09/11 05:47:39;;;;;;;;;12.25;11.75;;;;;14.99;93.13;101775.16;5051644;28;49901;-69
2022/09/11 05:50:06;;;;;;;;;15.75;13.00;;;;;14.95;92.56;101773.28;5046052;28;56569;-71
2022/09/11 05:52:33;;;;;;;;;11.50;10.25;;;;;14.72;92.62;101736.75;5052251;28;49663;-69
2022/09/11 05:54:59;;;;;;;;;11.00;10.25;;;;;15.04;93.71;101789.34;5051649;28;49762;-70
2022/09/11 05:57:24;;;;;;;;;11.00;9.75;;;;;14.99;93.89;101780.44;5042979;28;49791;-79
2022/09/11 05:59:49;;;;;;;;;10.25;10.25;;;;;15.13;93.47;101802.72;5042403;28;56526;-67
2022/09/11 06:02:14;;;;;;;;;7.25;7.25;;;;;15.17;94.00;101794.00;5029538;28;63231;-66
2022/09/11 06:04:40;;;;;;;;;14.00;11.00;;;;;15.18;92.98;101799.31;5030074;28;55693;-67
2022/09/11 06:07:05;;;;;;;;;11.75;11.75;;;;;15.22;93.21;101800.25;5029679;28;50921;-66
2022/09/11 06:09:30;;;;;;;;;11.25;11.25;;;;;15.17;93.06;101786.06;5030029;28;64222;-67
2022/09/11 06:11:55;;;;;;;;;9.00;9.00;;;;;15.29;93.63;101798.63;5029694;28;56772;-67
2022/09/11 06:14:21;;;;;;;;;10.50;9.00;;;;;15.32;93.02;101803.97;5030283;28;49585;-67
2022/09/11 06:16:47;;;;;;;;;11.75;11.75;;;;;15.28;92.78;101789.78;5029269;28;75015;-67
2022/09/11 06:19:12;;;;;;;;;11.50;11.50;;;;;15.37;92.40;101799.66;5030162;28;49685;-67
2022/09/11 06:21:38;;;;;;;;;10.00;7.67;;;;;15.42;92.80;101808.53;5029839;28;49914;-67
2022/09/11 06:24:04;;;;;;;;;8.25;8.25;;;;;15.39;92.49;101789.97;5030404;28;49845;-67
2022/09/11 06:26:29;;;;;;;;;8.75;8.75;;;;;15.44;92.78;101793.59;5029838;28;49953;-67
2022/09/11 06:28:55;;;;;;;;;14.25;12.50;;;;;15.54;91.77;101802.56;5030227;28;49722;-66
2022/09/11 06:31:23;;;;;;;;;11.00;10.00;;;;;15.57;91.79;101802.66;5030288;28;49735;-67
2022/09/11 06:33:50;;;;;;;;;13.00;11.50;;;;;15.44;91.55;101780.34;5028915;28;49766;-66
2022/09/11 06:36:18;;;;;;;;;10.00;10.00;;;;;15.56;91.50;101801.75;5029670;28;49888;-67
2022/09/11 06:38:43;;;;;;;;;10.00;10.00;;;;;15.60;91.85;101793.03;5029958;28;49842;-66
2022/09/11 06:41:12;;;;;;;;;8.75;7.50;;;;;15.68;91.43;101795.78;5030046;28;49685;-66
2022/09/11 06:43:38;;;;;;;;;12.00;12.00;;;;;15.75;90.90;101805.63;5030190;28;49684;-67
2022/09/11 06:46:15;;;;;;;;;12.75;12.75;;;;;15.83;90.26;101811.06;5029834;28;51346;-67
2022/09/11 06:48:42;;;;;;;;;11.50;11.50;;;;;15.76;90.56;101795.94;5030076;28;49876;-67
2022/09/11 06:51:10;;;;;;;;;11.25;11.00;;;;;15.86;90.11;101804.03;5029731;28;49819;-67
2022/09/11 06:53:36;;;;;;;;;12.75;10.75;;;;;15.93;89.44;101815.63;5030112;28;50454;-66
2022/09/11 06:56:04;;;;;;;;;9.25;9.25;;;;;15.97;90.07;101805.09;5029565;28;50508;-67
2022/09/11 06:58:30;;;;;;;;;15.00;12.00;;;;;16.03;90.57;101809.59;5029616;28;49705;-67
2022/09/11 07:01:01;;;;;;;;;12.25;11.75;;;;;16.11;90.04;101807.03;5029842;28;49550;-67
2022/09/11 07:03:27;;;;;;;;;14.75;13.75;;;;;16.16;89.74;101814.19;5029805;28;49694;-67
2022/09/11 07:05:52;;;;;;;;;13.00;13.00;;;;;16.12;89.49;101788.56;5028815;28;65510;-67
2022/09/11 07:08:18;;;;;;;;;11.75;11.75;;;;;16.28;89.53;101806.41;5029451;28;53475;-67
2022/09/11 07:10:44;;;;;;;;;16.75;14.75;;;;;16.37;89.02;101808.31;5029703;28;49775;-66
2022/09/11 07:13:09;;;;;;;;;16.25;12.75;;;;;16.29;88.28;101791.41;5029612;28;49880;-67
2022/09/11 07:15:34;;;;;;;;;15.50;12.00;;;;;16.38;87.61;101802.13;5022721;28;51087;-66
2022/09/11 07:18:00;;;;;;;;;15.00;14.00;;;;;16.44;87.50;101810.19;5029563;28;49785;-67
2022/09/11 07:20:26;;;;;;;;;14.00;14.00;;;;;16.43;88.12;101805.75;5029430;28;49664;-67
2022/09/11 07:22:51;;;;;;;;;12.00;11.25;;;;;16.59;87.87;101801.53;5035888;28;49452;-67
2022/09/11 07:25:17;;;;;;;;;14.25;13.50;;;;;16.65;87.38;101806.03;5034276;28;50050;-67
2022/09/11 07:27:43;;;;;;;;;17.00;15.75;;;;;16.52;85.92;101786.44;5034623;28;57044;-68
2022/09/11 07:30:09;;;;;;;;;15.25;13.50;;;;;16.69;86.37;101810.50;5038460;28;49608;-66
2022/09/11 07:32:35;;;;;;;;;15.00;15.00;;;;;16.80;86.48;101808.91;5039259;28;49858;-67
2022/09/11 07:35:02;;;;;;;;;17.25;16.75;;;;;16.81;85.61;101810.69;5044265;28;50272;-66
2022/09/11 07:37:27;;;;;;;;;18.50;17.50;;;;;16.84;86.06;101802.75;5049745;28;49440;-66
2022/09/11 07:39:52;;;;;;;;;14.50;14.50;;;;;16.94;86.52;101815.25;5050024;28;49772;-66
2022/09/11 07:42:17;;;;;;;;;21.25;17.25;;;;;16.75;87.27;101758.47;5048751;28;50463;-66
2022/09/11 07:44:43;;;;;;;;;20.25;15.75;;;;;17.08;86.80;101795.09;5048842;28;49430;-66
2022/09/11 07:47:08;;;;;;;;;15.50;13.25;;;;;17.30;86.25;101797.94;5048204;28;50120;-66
2022/09/11 07:49:33;;;;;;;;;18.25;17.50;;;;;17.47;85.52;101812.28;5049125;28;49641;-66
2022/09/11 07:52:02;;;;;;;;;21.00;20.00;;;;;17.50;84.64;101811.41;5046360;28;49543;-67
2022/09/11 07:54:28;;;;;;;;;18.25;15.50;;;;;17.56;84.76;101817.63;5047545;28;49545;-66
2022/09/11 07:56:54;;;;;;;;;16.50;13.50;;;;;17.61;85.63;101800.00;5048345;28;49582;-75
2022/09/11 07:59:21;;;;;;;;;14.75;14.75;;;;;17.70;85.09;101788.59;5048659;28;49649;-68
2022/09/11 08:01:48;;;;;;;;;18.00;16.75;;;;;17.70;83.03;101797.44;5048099;28;49765;-67
2022/09/11 08:04:14;;;;;;;;;17.25;17.25;;;;;17.79;83.06;101806.38;5048867;28;49532;-67
2022/09/11 08:06:39;;;;;;;;;17.75;16.75;;;;;17.86;83.39;101810.88;5045989;28;49523;-68
2022/09/11 08:09:08;;;;;;;;;24.25;22.50;;;;;17.78;83.32;101784.25;5047817;28;58072;-66
2022/09/11 08:11:43;;;;;;;;;20.50;20.00;;;;;17.70;82.35;101756.72;5048072;28;49341;-67
2022/09/11 08:14:10;;;;;;;;;25.00;25.00;;;;;17.92;82.67;101789.63;5050139;28;49536;-67
2022/09/11 08:16:36;;;;;;;;;20.25;19.75;;;;;18.06;83.09;101801.25;5050304;28;49496;-68
2022/09/11 08:19:02;;;;;;;;;15.00;13.25;;;;;18.17;82.86;101810.19;5049338;28;49345;-67
2022/09/11 08:21:27;;;;;;;;;29.00;28.00;;;;;18.26;82.67;101806.69;5048623;28;49965;-69
2022/09/11 08:23:53;;;;;;;;;25.75;25.75;;;;;18.04;81.57;101771.13;5047601;28;50091;-68
2022/09/11 08:26:24;;;;;;;;;30.75;25.75;;;;;18.21;82.08;101797.78;5045397;28;49633;-67
2022/09/11 08:28:51;;;;;;;;;29.50;28.25;;;;;18.28;81.87;101800.50;5047706;28;49365;-67
2022/09/11 08:31:18;;;;;;;;;29.75;28.75;;;;;18.34;81.85;101799.66;5049731;28;49396;-69
2022/09/11 08:33:44;;;;;;;;;30.25;30.00;;;;;18.45;82.74;101813.91;5047676;28;49508;-66
2022/09/11 08:36:13;;;;;;;;;27.25;25.25;;;;;18.56;82.97;101800.66;5044602;28;49521;-65
2022/09/11 08:38:39;;;;;;;;;33.25;31.25;;;;;18.46;81.91;101765.16;5039879;28;49694;-66
2022/09/11 08:42:00;;;;;;;;;32.25;30.25;;;;;18.87;80.66;101814.97;5042820;28;49572;-67
2022/09/11 08:44:46;;;;;;;;;32.75;30.75;;;;;19.05;81.48;101808.84;5013376;28;49828;-68
2022/09/11 08:47:23;;;;;;;;;32.00;29.75;;;;;19.29;81.72;101818.63;5047016;28;49369;-72
2022/09/11 08:50:01;;;;;;;;;37.25;32.50;;;;;19.41;81.60;101803.59;5034996;28;49747;-73
2022/09/11 08:52:27;;;;;;;;;34.50;30.50;;;;;19.69;81.16;101822.28;5031785;28;49793;-69
2022/09/11 08:54:56;;;;;;;;;32.75;31.00;;;;;19.87;79.99;101818.69;5034636;28;50381;-70
2022/09/11 08:57:24;;;;;;;;;37.00;32.75;;;;;20.00;79.61;101818.69;5031673;28;49835;-75
2022/09/11 09:00:01;;;;;;;;;33.25;31.25;;;;;20.11;79.33;101816.00;5031729;28;49781;-81
2022/09/11 09:03:05;;;;;;;;;35.75;30.00;;;;;20.23;76.92;101815.97;5025755;28;50193;-82
2022/09/11 09:05:55;;;;;;;;;43.75;37.25;;;;;20.29;75.58;101807.09;5031119;28;50446;-76
2022/09/11 09:08:33;;;;;;;;;40.25;35.75;;;;;20.34;77.97;101815.06;5031791;28;49886;-79
2022/09/11 09:10:59;;;;;;;;;32.75;31.75;;;;;20.40;76.92;101817.72;5031696;28;49688;-74
2022/09/11 09:13:58;;;;;;;;;41.75;35.75;;;;;20.36;76.00;101814.16;5032101;28;49624;-80
2022/09/11 09:17:01;;;;;;;;;43.50;38.00;;;;;20.24;76.00;101811.53;5031202;28;51133;-70
2022/09/11 09:19:34;;;;;;;;;46.00;38.75;;;;;20.05;76.58;101804.47;5032577;28;49829;-74
2022/09/11 09:22:02;;;;;;;;;45.25;38.00;;;;;19.95;77.33;101814.25;5041264;28;49512;-73
2022/09/11 09:24:34;;;;;;;;;42.75;36.50;;;;;19.82;77.74;101802.72;5034397;28;49814;-72
2022/09/11 09:27:03;;;;;;;;;38.75;34.00;;;;;19.62;76.96;101786.75;5030805;28;50710;-73
2022/09/11 09:29:36;;;;;;;;;35.50;33.50;;;;;19.65;78.63;101816.03;5033458;28;49742;-73
2022/09/11 09:32:13;;;;;;;;;37.25;34.00;;;;;19.58;78.85;101814.25;5029203;28;49727;-73
2022/09/11 09:34:44;;;;;;;;;38.50;34.50;;;;;19.54;78.87;101816.91;5030292;28;49852;-82
2022/09/11 09:37:18;;;;;;;;;43.50;37.25;;;;;19.43;78.09;101814.22;5024648;28;50122;-73
2022/09/11 09:39:44;;;;;;;;;41.50;36.00;;;;;19.17;79.07;101790.22;5029764;28;50057;-77
2022/09/11 09:42:37;;;;;;;;;44.00;36.50;;;;;19.28;78.77;101823.06;5028079;28;50009;-86
2022/09/11 09:45:41;;;;;;;;;40.50;34.00;;;;;19.27;80.05;101815.97;5030288;28;49919;-77
2022/09/11 09:48:10;;;;;;;;;41.00;36.00;;;;;19.19;79.73;101792.88;5014959;28;51746;-76
2022/09/11 09:50:39;;;;;;;;;40.25;34.50;;;;;19.16;80.22;101793.78;5037694;28;50127;-78
2022/09/11 09:53:31;;;;;;;;;44.75;37.75;;;;;18.98;80.04;101799.94;5052473;28;49753;-80
2022/09/11 09:55:59;;;;;;;;;38.25;34.75;;;;;19.17;81.07;101796.44;5032448;28;49696;-78
2022/09/11 09:58:31;;;;;;;;;39.00;35.75;;;;;19.13;81.83;101784.03;5030536;28;51174;-84
2022/09/11 10:00:56;;;;;;;;;38.75;33.75;;;;;19.24;80.37;101796.44;5030680;28;49942;-78
2022/09/11 16:23:13;;;;;;;;;3.25;3.25;;;;;22.55;52.52;101465.66;5065270;27;2221260;-87
2022/09/11 16:25:39;;;;;;;;;4.25;2.00;;;;;22.60;51.62;101454.91;5116532;27;49848;-76
2022/09/11 16:28:07;;;;;;;;;2.00;2.00;;;;;22.20;51.90;101381.59;5119872;27;49796;-71
2022/09/11 16:30:32;;;;;;;;;2.00;2.00;;;;;22.14;51.05;101354.06;5122078;27;49924;-87
2022/09/11 16:32:58;;;;;;;;;2.00;2.00;;;;;22.09;50.69;101302.44;5121575;27;49976;-83
2022/09/11 16:35:24;;;;;;;;;3.00;3.00;;;;;22.79;50.32;101421.53;5129208;27;49392;-83
2022/09/11 16:37:50;;;;;;;;;2.75;1.75;;;;;22.91;49.57;101401.69;5101576;27;49921;-74
2022/09/11 16:40:15;;;;;;;;;1.50;1.50;;;;;23.36;49.63;101456.13;5109823;27;49802;-90
2022/09/11 16:42:40;;;;;;;;;2.50;1.25;;;;;23.18;49.90;101430.59;5115233;27;51965;-79
2022/09/11 16:45:06;;;;;;;;;2.25;2.25;;;;;23.49;49.41;101448.69;5108886;27;54431;-74
2022/09/11 16:47:32;;;;;;;;;2.00;2.00;;;;;23.29;48.69;101404.47;5111660;27;50066;-80
2022/09/11 16:49:57;;;;;;;;;2.00;2.00;;;;;23.09;48.62;101377.22;5107632;27;49907;-77
2022/09/11 16:52:22;;;;;;;;;1.00;1.00;;;;;22.66;49.04;101296.88;5110290;27;49747;-76
2022/09/11 16:54:48;;;;;;;;;2.00;2.00;;;;;22.93;48.74;101327.56;5112459;27;49673;-74
2022/09/11 16:57:13;;;;;;;;;4.25;3.00;;;;;23.29;48.05;101391.06;5111737;27;49862;-74
2022/09/11 16:59:38;;;;;;;;;2.50;2.50;;;;;22.54;48.22;101277.50;5109166;27;50454;-76
2022/09/11 17:02:05;;;;;;;;;4.75;2.50;;;;;23.21;49.07;101408.22;5102531;27;49784;-76
2022/09/11 17:04:30;;;;;;;;;2.00;2.00;;;;;23.49;49.62;101437.97;5111518;27;49997;-71
2022/09/11 17:06:56;;;;;;;;;2.75;2.00;;;;;23.25;49.53;101405.41;5125369;27;49207;-72
2022/09/11 17:09:21;;;;;;;;;3.50;3.50;;;;;22.81;50.20;101321.53;5124128;27;50298;-70
2022/09/11 17:11:47;;;;;;;;;2.00;2.00;;;;;23.18;50.09;101397.56;5125386;27;49223;-73
2022/09/11 17:14:15;;;;;;;;;4.25;2.75;;;;;22.85;50.62;101378.59;5105906;27;49379;-77
2022/09/11 17:16:40;;;;;;;;;2.50;2.50;;;;;23.31;50.72;101448.16;5109392;27;49803;-74
2022/09/11 17:19:06;;;;;;;;;2.50;2.50;;;;;23.25;50.64;101436.69;5103970;27;49981;-80
2022/09/11 17:21:36;;;;;;;;;2.50;2.50;;;;;23.14;51.07;101437.78;5114001;27;49834;-82
2022/09/11 17:24:03;;;;;;;;;3.25;1.75;;;;;22.90;50.81;101413.31;5115151;27;49189;-74
2022/09/11 17:26:30;;;;;;;;;3.00;3.00;;;;;23.05;51.73;101447.81;5121455;27;49939;-85
2022/09/11 17:29:00;;;;;;;;;3.00;3.00;;;;;22.96;51.33;101431.91;5123080;27;49719;-75
2022/09/11 17:31:25;;;;;;;;;1.00;1.00;;;;;22.91;51.87;101439.19;5121654;27;49545;-77
2022/09/11 17:33:50;;;;;;;;;1.50;1.50;;;;;22.83;52.15;101432.13;5113394;27;49479;-86
2022/09/11 17:36:19;;;;;;;;;2.75;2.75;;;;;22.79;52.31;101430.44;5108992;27;49721;-85
2022/09/11 17:38:47;;;;;;;;;2.25;2.25;;;;;22.60;52.49;101412.97;5108049;27;49740;-83
2022/09/11 17:41:13;;;;;;;;;4.25;3.25;;;;;22.66;52.77;101434.25;5105486;27;49639;-81
2022/09/11 17:43:39;;;;;;;;;2.75;2.75;;;;;22.54;52.38;101426.44;5108808;27;49974;-77